Bowling Green, South Carolina
Current Conditions -  °F | °C
As of 11:54 AM on Thursday 18 Dec 2014 (Local Time) from KAKH Reporting Station
Overcast Overcast  
Wind Chill: 48°   Ceiling: 8500
Heat Index: 48°   Visibility: 10mi
Dew Point: 28°   Wind: 0mph
Humidity: 46%   Direction: NA
Pressure: 30.16"   Gusts: NA
Location:  35.15°N, 81.21°W
Report Text: KAKH 181654Z AUTO 00000KT 10SM OVC085 09/M02 A3016 RMK AO2 SLP216 T00891022
Loading
Personal Weather Stations






























Interactive Weather Map New forecast layout! Learn more

10-Day Weather Forecast

Advertisements
Track Severe Weather on mobile